sensor_id;sensor_type;location;lat;lon;timestamp;pressure;altitude;pressure_sealevel;temperature;humidity
44297;BME280;51842;47.450;8.654;2023-06-10T00:02:08;95047.13;;;16.29;74.94
44297;BME280;51842;47.450;8.654;2023-06-10T00:04:34;95042.53;;;16.21;74.58
44297;BME280;51842;47.450;8.654;2023-06-10T00:07:06;95038.88;;;16.16;75.82
44297;BME280;51842;47.450;8.654;2023-06-10T00:09:36;95040.47;;;16.17;75.54
44297;BME280;51842;47.450;8.654;2023-06-10T00:12:07;95046.47;;;16.14;74.39
44297;BME280;51842;47.450;8.654;2023-06-10T00:14:37;95037.00;;;16.17;73.42
44297;BME280;51842;47.450;8.654;2023-06-10T00:17:04;95030.34;;;16.14;73.73
44297;BME280;51842;47.450;8.654;2023-06-10T00:19:30;95039.81;;;16.12;73.42
44297;BME280;51842;47.450;8.654;2023-06-10T00:21:59;95036.19;;;16.08;74.60
44297;BME280;51842;47.450;8.654;2023-06-10T00:24:24;95035.81;;;16.01;74.80
44297;BME280;51842;47.450;8.654;2023-06-10T00:26:50;95031.91;;;16.07;71.97
44297;BME280;51842;47.450;8.654;2023-06-10T00:29:16;95034.13;;;16.13;71.71
44297;BME280;51842;47.450;8.654;2023-06-10T00:31:44;95027.97;;;16.13;71.84
44297;BME280;51842;47.450;8.654;2023-06-10T00:34:11;95030.66;;;16.13;72.88
44297;BME280;51842;47.450;8.654;2023-06-10T00:36:37;95038.06;;;16.07;72.86
44297;BME280;51842;47.450;8.654;2023-06-10T00:39:03;95039.78;;;16.03;71.94
44297;BME280;51842;47.450;8.654;2023-06-10T00:41:30;95034.88;;;15.96;72.16
44297;BME280;51842;47.450;8.654;2023-06-10T00:43:56;95034.84;;;15.88;73.22
44297;BME280;51842;47.450;8.654;2023-06-10T00:46:24;95035.28;;;15.81;73.93
44297;BME280;51842;47.450;8.654;2023-06-10T00:48:51;95031.00;;;15.71;73.92
44297;BME280;51842;47.450;8.654;2023-06-10T00:51:18;95030.63;;;15.64;74.42
44297;BME280;51842;47.450;8.654;2023-06-10T00:53:45;95034.56;;;15.58;74.60
44297;BME280;51842;47.450;8.654;2023-06-10T00:56:11;95035.28;;;15.50;75.10
44297;BME280;51842;47.450;8.654;2023-06-10T00:58:38;95034.16;;;15.42;75.05
44297;BME280;51842;47.450;8.654;2023-06-10T01:01:04;95030.63;;;15.33;74.45
44297;BME280;51842;47.450;8.654;2023-06-10T01:03:30;95033.88;;;15.21;74.34
44297;BME280;51842;47.450;8.654;2023-06-10T01:11:52;95032.94;;;14.95;78.57
44297;BME280;51842;47.450;8.654;2023-06-10T01:14:23;95025.28;;;14.88;78.60
44297;BME280;51842;47.450;8.654;2023-06-10T01:16:48;95028.22;;;14.78;79.81
44297;BME280;51842;47.450;8.654;2023-06-10T01:19:15;95031.84;;;14.73;78.86
44297;BME280;51842;47.450;8.654;2023-06-10T01:21:43;95026.38;;;14.65;79.00
44297;BME280;51842;47.450;8.654;2023-06-10T01:24:15;95032.78;;;14.55;80.26
44297;BME280;51842;47.450;8.654;2023-06-10T01:26:45;95028.41;;;14.45;80.13
44297;BME280;51842;47.450;8.654;2023-06-10T01:29:24;95038.88;;;14.33;82.53
44297;BME280;51842;47.450;8.654;2023-06-10T01:32:17;95038.41;;;14.17;84.09
44297;BME280;51842;47.450;8.654;2023-06-10T01:34:45;95035.63;;;14.08;84.80
44297;BME280;51842;47.450;8.654;2023-06-10T01:37:17;95041.38;;;14.02;85.10
44297;BME280;51842;47.450;8.654;2023-06-10T01:39:46;95039.50;;;13.88;85.32
44297;BME280;51842;47.450;8.654;2023-06-10T01:42:13;95037.72;;;13.84;85.88
44297;BME280;51842;47.450;8.654;2023-06-10T01:44:39;95040.28;;;13.75;86.08
44297;BME280;51842;47.450;8.654;2023-06-10T01:47:05;95039.91;;;13.68;85.89
44297;BME280;51842;47.450;8.654;2023-06-10T01:49:31;95039.00;;;13.59;86.71
44297;BME280;51842;47.450;8.654;2023-06-10T01:51:57;95046.53;;;13.57;86.41
44297;BME280;51842;47.450;8.654;2023-06-10T01:54:22;95037.50;;;13.53;86.68
44297;BME280;51842;47.450;8.654;2023-06-10T01:56:48;95038.41;;;13.48;87.13
44297;BME280;51842;47.450;8.654;2023-06-10T01:59:14;95042.84;;;13.39;88.33
44297;BME280;51842;47.450;8.654;2023-06-10T02:01:41;95041.03;;;13.34;88.50
44297;BME280;51842;47.450;8.654;2023-06-10T02:04:07;95038.69;;;13.33;88.48
44297;BME280;51842;47.450;8.654;2023-06-10T02:06:32;95040.84;;;13.31;88.17
44297;BME280;51842;47.450;8.654;2023-06-10T02:08:58;95044.63;;;13.30;88.60
44297;BME280;51842;47.450;8.654;2023-06-10T02:11:24;95036.94;;;13.23;88.86
44297;BME280;51842;47.450;8.654;2023-06-10T02:13:50;95045.75;;;13.24;89.14
44297;BME280;51842;47.450;8.654;2023-06-10T02:16:15;95042.28;;;13.23;89.64
44297;BME280;51842;47.450;8.654;2023-06-10T02:18:42;95048.16;;;13.25;88.87
44297;BME280;51842;47.450;8.654;2023-06-10T02:21:11;95044.09;;;13.28;88.84
44297;BME280;51842;47.450;8.654;2023-06-10T02:23:37;95047.56;;;13.28;88.56
44297;BME280;51842;47.450;8.654;2023-06-10T02:26:03;95056.09;;;13.30;88.13
44297;BME280;51842;47.450;8.654;2023-06-10T02:28:29;95048.28;;;13.34;87.23
44297;BME280;51842;47.450;8.654;2023-06-10T02:30:54;95060.06;;;13.33;87.45
44297;BME280;51842;47.450;8.654;2023-06-10T02:33:22;95054.22;;;13.31;87.25
44297;BME280;51842;47.450;8.654;2023-06-10T02:35:48;95060.94;;;13.28;87.11
44297;BME280;51842;47.450;8.654;2023-06-10T02:38:14;95061.81;;;13.24;87.40
44297;BME280;51842;47.450;8.654;2023-06-10T02:40:40;95067.75;;;13.20;88.91
44297;BME280;51842;47.450;8.654;2023-06-10T02:43:05;95071.50;;;13.19;87.90
44297;BME280;51842;47.450;8.654;2023-06-10T02:45:31;95074.53;;;13.13;89.40
44297;BME280;51842;47.450;8.654;2023-06-10T02:47:57;95074.31;;;13.09;90.58
44297;BME280;51842;47.450;8.654;2023-06-10T02:50:23;95074.91;;;13.06;89.93
44297;BME280;51842;47.450;8.654;2023-06-10T02:52:48;95074.91;;;13.06;89.56
44297;BME280;51842;47.450;8.654;2023-06-10T02:55:15;95081.16;;;13.02;89.85
44297;BME280;51842;47.450;8.654;2023-06-10T02:57:41;95074.81;;;12.98;89.99
44297;BME280;51842;47.450;8.654;2023-06-10T03:00:07;95077.25;;;12.94;90.10
44297;BME280;51842;47.450;8.654;2023-06-10T03:02:40;95073.06;;;12.88;91.34
44297;BME280;51842;47.450;8.654;2023-06-10T03:05:07;95074.16;;;12.87;92.22
44297;BME280;51842;47.450;8.654;2023-06-10T03:07:36;95082.47;;;12.85;91.91
44297;BME280;51842;47.450;8.654;2023-06-10T03:10:03;95075.81;;;12.83;92.06
44297;BME280;51842;47.450;8.654;2023-06-10T03:12:28;95074.53;;;12.80;92.50
44297;BME280;51842;47.450;8.654;2023-06-10T03:14:54;95075.63;;;12.79;92.37
44297;BME280;51842;47.450;8.654;2023-06-10T03:17:20;95077.25;;;12.75;91.95
44297;BME280;51842;47.450;8.654;2023-06-10T03:19:46;95077.84;;;12.72;92.89
44297;BME280;51842;47.450;8.654;2023-06-10T03:22:14;95079.72;;;12.71;93.85
44297;BME280;51842;47.450;8.654;2023-06-10T03:24:41;95091.28;;;12.67;94.34
44297;BME280;51842;47.450;8.654;2023-06-10T03:27:08;95087.84;;;12.66;93.96
44297;BME280;51842;47.450;8.654;2023-06-10T03:29:35;95092.09;;;12.67;93.99
44297;BME280;51842;47.450;8.654;2023-06-10T03:32:01;95088.31;;;12.68;93.66
44297;BME280;51842;47.450;8.654;2023-06-10T03:34:27;95092.59;;;12.69;93.23
44297;BME280;51842;47.450;8.654;2023-06-10T03:36:53;95095.28;;;12.69;93.90
44297;BME280;51842;47.450;8.654;2023-06-10T03:39:19;95104.06;;;12.70;93.70
44297;BME280;51842;47.450;8.654;2023-06-10T03:41:45;95103.88;;;12.66;94.16
44297;BME280;51842;47.450;8.654;2023-06-10T03:44:10;95102.78;;;12.67;93.86
44297;BME280;51842;47.450;8.654;2023-06-10T03:46:37;95101.97;;;12.67;93.43
44297;BME280;51842;47.450;8.654;2023-06-10T03:49:03;95108.69;;;12.64;92.66
44297;BME280;51842;47.450;8.654;2023-06-10T03:51:29;95112.16;;;12.65;93.80
44297;BME280;51842;47.450;8.654;2023-06-10T03:53:55;95120.47;;;12.63;93.95
44297;BME280;51842;47.450;8.654;2023-06-10T03:56:21;95111.38;;;12.64;94.85
44297;BME280;51842;47.450;8.654;2023-06-10T03:58:47;95122.84;;;12.65;95.61
44297;BME280;51842;47.450;8.654;2023-06-10T04:01:13;95119.91;;;12.66;95.77
44297;BME280;51842;47.450;8.654;2023-06-10T04:03:39;95117.22;;;12.66;95.20
44297;BME280;51842;47.450;8.654;2023-06-10T04:06:09;95122.56;;;12.66;94.67
44297;BME280;51842;47.450;8.654;2023-06-10T04:08:35;95122.06;;;12.64;95.48
44297;BME280;51842;47.450;8.654;2023-06-10T04:11:01;95118.88;;;12.62;96.83
44297;BME280;51842;47.450;8.654;2023-06-10T04:13:27;95119.59;;;12.68;97.81
44297;BME280;51842;47.450;8.654;2023-06-10T04:15:53;95122.06;;;12.83;97.06
44297;BME280;51842;47.450;8.654;2023-06-10T04:18:20;95122.56;;;13.04;95.96
44297;BME280;51842;47.450;8.654;2023-06-10T04:20:47;95123.03;;;13.25;94.55
44297;BME280;51842;47.450;8.654;2023-06-10T04:23:13;95129.97;;;13.45;93.81
44297;BME280;51842;47.450;8.654;2023-06-10T04:25:38;95147.84;;;13.63;92.75
44297;BME280;51842;47.450;8.654;2023-06-10T04:28:04;95132.59;;;13.78;91.01
44297;BME280;51842;47.450;8.654;2023-06-10T04:30:30;95135.97;;;13.97;89.89
44297;BME280;51842;47.450;8.654;2023-06-10T04:32:57;95132.94;;;14.18;89.23
44297;BME280;51842;47.450;8.654;2023-06-10T04:35:23;95129.81;;;14.38;87.97
44297;BME280;51842;47.450;8.654;2023-06-10T04:37:50;95139.06;;;14.60;86.68
44297;BME280;51842;47.450;8.654;2023-06-10T04:40:15;95140.22;;;14.81;85.51
44297;BME280;51842;47.450;8.654;2023-06-10T04:42:41;95141.34;;;15.02;83.61
44297;BME280;51842;47.450;8.654;2023-06-10T04:45:08;95142.47;;;15.24;83.20
44297;BME280;51842;47.450;8.654;2023-06-10T04:47:34;95142.59;;;15.41;81.99
44297;BME280;51842;47.450;8.654;2023-06-10T04:50:01;95142.72;;;15.59;81.49
44297;BME280;51842;47.450;8.654;2023-06-10T04:52:28;95152.31;;;15.73;80.90
44297;BME280;51842;47.450;8.654;2023-06-10T04:54:54;95152.53;;;15.86;81.03
44297;BME280;51842;47.450;8.654;2023-06-10T04:57:21;95158.78;;;16.04;80.34
44297;BME280;51842;47.450;8.654;2023-06-10T04:59:47;95165.22;;;16.34;77.79
44297;BME280;51842;47.450;8.654;2023-06-10T05:02:13;95158.84;;;16.61;75.75
44297;BME280;51842;47.450;8.654;2023-06-10T05:04:39;95166.66;;;16.88;73.78
44297;BME280;51842;47.450;8.654;2023-06-10T05:07:05;95164.31;;;17.13;71.38
44297;BME280;51842;47.450;8.654;2023-06-10T05:09:31;95167.81;;;17.31;69.76
44297;BME280;51842;47.450;8.654;2023-06-10T05:11:57;95163.66;;;17.42;69.19
44297;BME280;51842;47.450;8.654;2023-06-10T05:14:23;95160.97;;;17.51;68.63
44297;BME280;51842;47.450;8.654;2023-06-10T05:16:49;95170.78;;;17.64;68.19
44297;BME280;51842;47.450;8.654;2023-06-10T05:19:14;95163.03;;;17.80;67.61
44297;BME280;51842;47.450;8.654;2023-06-10T05:21:41;95173.13;;;18.00;66.63
44297;BME280;51842;47.450;8.654;2023-06-10T05:24:08;95170.81;;;18.29;67.22
44297;BME280;51842;47.450;8.654;2023-06-10T05:26:34;95178.78;;;18.55;64.06
44297;BME280;51842;47.450;8.654;2023-06-10T05:29:04;95178.22;;;18.79;65.07
44297;BME280;51842;47.450;8.654;2023-06-10T05:31:30;95175.88;;;18.98;64.43
44297;BME280;51842;47.450;8.654;2023-06-10T05:33:56;95170.16;;;19.21;63.42
44297;BME280;51842;47.450;8.654;2023-06-10T05:36:21;95185.56;;;19.41;62.15
44297;BME280;51842;47.450;8.654;2023-06-10T05:38:47;95183.97;;;19.61;61.24
44297;BME280;51842;47.450;8.654;2023-06-10T05:41:13;95187.91;;;19.63;61.02
44297;BME280;51842;47.450;8.654;2023-06-10T05:43:38;95176.53;;;19.79;61.56
44297;BME280;51842;47.450;8.654;2023-06-10T05:46:04;95180.28;;;19.99;61.74
44297;BME280;51842;47.450;8.654;2023-06-10T05:48:30;95183.13;;;20.15;60.00
44297;BME280;51842;47.450;8.654;2023-06-10T05:50:56;95186.78;;;20.31;59.66
44297;BME280;51842;47.450;8.654;2023-06-10T05:53:21;95177.88;;;20.43;58.96
44297;BME280;51842;47.450;8.654;2023-06-10T05:55:47;95188.69;;;20.43;57.65
44297;BME280;51842;47.450;8.654;2023-06-10T05:58:14;95184.59;;;20.58;57.32
44297;BME280;51842;47.450;8.654;2023-06-10T06:00:41;95185.84;;;20.60;57.32
44297;BME280;51842;47.450;8.654;2023-06-10T06:03:10;95188.19;;;20.86;56.85
44297;BME280;51842;47.450;8.654;2023-06-10T06:05:36;95190.31;;;20.93;55.64
44297;BME280;51842;47.450;8.654;2023-06-10T06:08:07;95188.28;;;21.02;55.89
44297;BME280;51842;47.450;8.654;2023-06-10T06:10:34;95196.59;;;21.21;55.80
44297;BME280;51842;47.450;8.654;2023-06-10T06:13:00;95200.72;;;21.56;55.39
44297;BME280;51842;47.450;8.654;2023-06-10T06:15:26;95193.97;;;21.78;54.81
44297;BME280;51842;47.450;8.654;2023-06-10T06:17:52;95187.97;;;21.84;53.26
44297;BME280;51842;47.450;8.654;2023-06-10T06:20:20;95192.31;;;22.01;53.32
44297;BME280;51842;47.450;8.654;2023-06-10T06:22:46;95194.53;;;22.27;52.55
44297;BME280;51842;47.450;8.654;2023-06-10T06:25:12;95189.75;;;22.52;51.45
44297;BME280;51842;47.450;8.654;2023-06-10T06:27:38;95176.34;;;22.75;51.54
44297;BME280;51842;47.450;8.654;2023-06-10T06:30:06;95185.00;;;22.97;49.71
44297;BME280;51842;47.450;8.654;2023-06-10T06:32:33;95182.13;;;22.74;50.31
44297;BME280;51842;47.450;8.654;2023-06-10T06:34:58;95184.66;;;22.98;49.88
44297;BME280;51842;47.450;8.654;2023-06-10T06:37:25;95185.41;;;23.15;48.27
44297;BME280;51842;47.450;8.654;2023-06-10T06:39:52;95178.06;;;23.35;48.15
44297;BME280;51842;47.450;8.654;2023-06-10T06:42:19;95188.91;;;23.50;47.21
44297;BME280;51842;47.450;8.654;2023-06-10T06:44:47;95182.91;;;23.61;46.46
44297;BME280;51842;47.450;8.654;2023-06-10T06:47:13;95186.50;;;23.84;46.58
44297;BME280;51842;47.450;8.654;2023-06-10T06:49:39;95185.28;;;24.01;45.87
44297;BME280;51842;47.450;8.654;2023-06-10T06:52:06;95180.06;;;24.15;45.46
44297;BME280;51842;47.450;8.654;2023-06-10T06:54:32;95179.91;;;24.28;46.53
44297;BME280;51842;47.450;8.654;2023-06-10T06:56:58;95187.47;;;24.57;44.52
44297;BME280;51842;47.450;8.654;2023-06-10T06:59:23;95187.66;;;24.72;44.42
44297;BME280;51842;47.450;8.654;2023-06-10T07:01:51;95191.69;;;25.04;44.13
44297;BME280;51842;47.450;8.654;2023-06-10T07:04:17;95186.81;;;25.13;43.24
44297;BME280;51842;47.450;8.654;2023-06-10T07:06:45;95190.13;;;25.30;42.86
44297;BME280;51842;47.450;8.654;2023-06-10T07:09:10;95192.03;;;25.56;42.49
44297;BME280;51842;47.450;8.654;2023-06-10T07:11:36;95193.19;;;25.85;42.33
44297;BME280;51842;47.450;8.654;2023-06-10T07:14:02;95200.72;;;25.95;40.99
44297;BME280;51842;47.450;8.654;2023-06-10T07:16:28;95198.16;;;26.10;39.94
44297;BME280;51842;47.450;8.654;2023-06-10T07:18:54;95198.00;;;26.33;40.18
44297;BME280;51842;47.450;8.654;2023-06-10T07:21:20;95196.91;;;26.41;40.14
44297;BME280;51842;47.450;8.654;2023-06-10T07:23:48;95196.72;;;26.60;39.48
44297;BME280;51842;47.450;8.654;2023-06-10T07:26:13;95197.81;;;26.52;39.32
44297;BME280;51842;47.450;8.654;2023-06-10T07:28:40;95192.84;;;26.61;40.20
44297;BME280;51842;47.450;8.654;2023-06-10T07:31:07;95190.97;;;26.72;40.44
44297;BME280;51842;47.450;8.654;2023-06-10T07:33:33;95196.22;;;26.95;40.22
44297;BME280;51842;47.450;8.654;2023-06-10T07:36:00;95190.47;;;27.08;39.49
44297;BME280;51842;47.450;8.654;2023-06-10T07:38:26;95194.47;;;27.17;39.29
44297;BME280;51842;47.450;8.654;2023-06-10T07:40:52;95194.56;;;26.84;39.44
44297;BME280;51842;47.450;8.654;2023-06-10T07:43:18;95193.44;;;26.88;39.25
44297;BME280;51842;47.450;8.654;2023-06-10T07:45:45;95204.00;;;26.93;38.66
44297;BME280;51842;47.450;8.654;2023-06-10T07:48:11;95193.13;;;27.00;38.57
44297;BME280;51842;47.450;8.654;2023-06-10T07:50:36;95201.94;;;27.24;37.92
44297;BME280;51842;47.450;8.654;2023-06-10T07:53:02;95196.28;;;27.68;38.04
44297;BME280;51842;47.450;8.654;2023-06-10T07:55:28;95194.81;;;27.82;37.84
44297;BME280;51842;47.450;8.654;2023-06-10T07:57:54;95190.59;;;27.99;36.85
44297;BME280;51842;47.450;8.654;2023-06-10T08:00:21;95204.53;;;27.76;37.06
44297;BME280;51842;47.450;8.654;2023-06-10T08:02:47;95195.31;;;28.05;36.61
44297;BME280;51842;47.450;8.654;2023-06-10T08:05:13;95196.94;;;28.35;36.18
44297;BME280;51842;47.450;8.654;2023-06-10T08:07:40;95206.38;;;28.59;36.01
44297;BME280;51842;47.450;8.654;2023-06-10T08:10:06;95202.09;;;28.62;35.91
44297;BME280;51842;47.450;8.654;2023-06-10T08:12:33;95199.38;;;28.87;35.47
44297;BME280;51842;47.450;8.654;2023-06-10T08:15:00;95195.81;;;28.97;35.51
44297;BME280;51842;47.450;8.654;2023-06-10T08:17:26;95200.91;;;28.98;35.70
44297;BME280;51842;47.450;8.654;2023-06-10T08:19:52;95196.94;;;29.42;35.46
44297;BME280;51842;47.450;8.654;2023-06-10T08:22:18;95201.59;;;29.70;33.89
44297;BME280;51842;47.450;8.654;2023-06-10T08:24:44;95196.47;;;29.83;34.25
44297;BME280;51842;47.450;8.654;2023-06-10T08:27:09;95196.03;;;29.92;33.60
44297;BME280;51842;47.450;8.654;2023-06-10T08:29:36;95196.91;;;29.67;33.77
44297;BME280;51842;47.450;8.654;2023-06-10T08:32:02;95193.41;;;29.63;33.91
44297;BME280;51842;47.450;8.654;2023-06-10T08:34:28;95201.19;;;29.79;34.21
44297;BME280;51842;47.450;8.654;2023-06-10T08:36:54;95196.59;;;29.29;34.98
44297;BME280;51842;47.450;8.654;2023-06-10T08:39:22;95198.91;;;29.49;35.33
44297;BME280;51842;47.450;8.654;2023-06-10T08:42:28;95195.34;;;29.59;35.05
44297;BME280;51842;47.450;8.654;2023-06-10T08:45:01;95185.56;;;29.55;34.84
44297;BME280;51842;47.450;8.654;2023-06-10T08:47:30;95190.22;;;29.76;35.18
44297;BME280;51842;47.450;8.654;2023-06-10T08:50:04;95191.47;;;29.39;35.13
44297;BME280;51842;47.450;8.654;2023-06-10T08:52:37;95184.75;;;29.72;34.90
44297;BME280;51842;47.450;8.654;2023-06-10T08:55:12;95187.66;;;30.24;34.09
44297;BME280;51842;47.450;8.654;2023-06-10T08:57:41;95190.59;;;30.55;34.19
44297;BME280;51842;47.450;8.654;2023-06-10T09:00:09;95189.31;;;30.70;33.31
44297;BME280;51842;47.450;8.654;2023-06-10T09:02:36;95192.81;;;30.81;32.43
44297;BME280;51842;47.450;8.654;2023-06-10T09:05:03;95197.44;;;30.92;32.61
44297;BME280;51842;47.450;8.654;2023-06-10T09:07:30;95189.13;;;30.99;32.62
44297;BME280;51842;47.450;8.654;2023-06-10T09:09:57;95186.22;;;31.17;32.33
44297;BME280;51842;47.450;8.654;2023-06-10T09:12:24;95195.34;;;31.06;32.45
44297;BME280;51842;47.450;8.654;2023-06-10T09:14:50;95191.78;;;31.09;32.15
44297;BME280;51842;47.450;8.654;2023-06-10T09:17:17;95194.34;;;31.34;32.53
44297;BME280;51842;47.450;8.654;2023-06-10T09:19:44;95182.97;;;31.67;31.99
44297;BME280;51842;47.450;8.654;2023-06-10T09:22:11;95187.28;;;31.68;31.70
44297;BME280;51842;47.450;8.654;2023-06-10T09:24:39;95185.34;;;31.65;31.54
44297;BME280;51842;47.450;8.654;2023-06-10T09:27:07;95178.91;;;31.44;31.67
44297;BME280;51842;47.450;8.654;2023-06-10T09:29:53;95183.09;;;31.56;31.37
44297;BME280;51842;47.450;8.654;2023-06-10T09:32:19;95180.34;;;31.56;31.20
44297;BME280;51842;47.450;8.654;2023-06-10T09:34:47;95187.81;;;31.14;31.29
44297;BME280;51842;47.450;8.654;2023-06-10T09:37:20;95189.00;;;31.54;30.93
44297;BME280;51842;47.450;8.654;2023-06-10T09:40:06;95183.72;;;32.05;30.49
44297;BME280;51842;47.450;8.654;2023-06-10T09:42:37;95185.47;;;32.49;30.41
44297;BME280;51842;47.450;8.654;2023-06-10T09:45:05;95181.63;;;31.82;30.85
44297;BME280;51842;47.450;8.654;2023-06-10T09:47:31;95182.25;;;31.97;30.87
44297;BME280;51842;47.450;8.654;2023-06-10T09:49:57;95177.31;;;32.12;29.70
44297;BME280;51842;47.450;8.654;2023-06-10T09:52:28;95179.63;;;31.83;29.82
44297;BME280;51842;47.450;8.654;2023-06-10T09:55:00;95180.84;;;31.82;30.09
44297;BME280;51842;47.450;8.654;2023-06-10T09:57:31;95184.31;;;31.51;30.75
44297;BME280;51842;47.450;8.654;2023-06-10T10:00:06;95181.13;;;31.56;30.13
44297;BME280;51842;47.450;8.654;2023-06-10T10:02:48;95173.75;;;31.46;30.62
44297;BME280;51842;47.450;8.654;2023-06-10T10:05:15;95188.06;;;31.34;30.88
44297;BME280;51842;47.450;8.654;2023-06-10T10:07:42;95182.28;;;31.55;30.76
44297;BME280;51842;47.450;8.654;2023-06-10T10:10:09;95183.22;;;31.79;30.45
44297;BME280;51842;47.450;8.654;2023-06-10T10:12:38;95177.25;;;31.85;30.04
44297;BME280;51842;47.450;8.654;2023-06-10T10:15:08;95180.34;;;32.21;29.64
44297;BME280;51842;47.450;8.654;2023-06-10T10:17:40;95173.69;;;32.18;29.16
44297;BME280;51842;47.450;8.654;2023-06-10T10:20:14;95170.91;;;31.57;30.19
44297;BME280;51842;47.450;8.654;2023-06-10T10:22:43;95175.03;;;32.07;30.01
44297;BME280;51842;47.450;8.654;2023-06-10T10:25:17;95167.22;;;32.01;30.71
44297;BME280;51842;47.450;8.654;2023-06-10T10:28:11;95170.72;;;32.06;30.33
44297;BME280;51842;47.450;8.654;2023-06-10T10:30:52;95166.06;;;32.30;30.08
44297;BME280;51842;47.450;8.654;2023-06-10T10:33:58;95167.78;;;31.89;31.23
44297;BME280;51842;47.450;8.654;2023-06-10T10:36:25;95169.94;;;31.71;31.56
44297;BME280;51842;47.450;8.654;2023-06-10T10:38:52;95168.94;;;31.88;30.45
44297;BME280;51842;47.450;8.654;2023-06-10T10:41:20;95162.97;;;31.97;30.41
44297;BME280;51842;47.450;8.654;2023-06-10T10:43:48;95164.47;;;32.01;30.72
44297;BME280;51842;47.450;8.654;2023-06-10T10:46:17;95166.50;;;31.97;30.71
44297;BME280;51842;47.450;8.654;2023-06-10T10:48:44;95171.25;;;31.18;30.99
44297;BME280;51842;47.450;8.654;2023-06-10T10:51:11;95157.69;;;31.00;31.76
44297;BME280;51842;47.450;8.654;2023-06-10T10:53:38;95163.00;;;31.18;31.46
44297;BME280;51842;47.450;8.654;2023-06-10T10:56:07;95147.59;;;31.27;30.89
44297;BME280;51842;47.450;8.654;2023-06-10T10:58:33;95162.94;;;30.83;31.65
44297;BME280;51842;47.450;8.654;2023-06-10T11:00:59;95158.13;;;30.42;31.88
44297;BME280;51842;47.450;8.654;2023-06-10T11:03:29;95155.16;;;30.75;31.77
44297;BME280;51842;47.450;8.654;2023-06-10T11:05:58;95155.03;;;30.89;31.75
44297;BME280;51842;47.450;8.654;2023-06-10T11:10:59;95143.22;;;30.92;32.05
44297;BME280;51842;47.450;8.654;2023-06-10T11:13:26;95149.34;;;31.10;32.83
44297;BME280;51842;47.450;8.654;2023-06-10T11:15:58;95141.34;;;31.23;32.02
44297;BME280;51842;47.450;8.654;2023-06-10T11:18:26;95147.63;;;31.62;31.70
44297;BME280;51842;47.450;8.654;2023-06-10T11:31:24;95144.91;;;30.79;32.02
44297;BME280;51842;47.450;8.654;2023-06-10T11:36:20;95142.31;;;31.06;30.72
44297;BME280;51842;47.450;8.654;2023-06-10T11:38:46;95145.38;;;31.15;30.76
44297;BME280;51842;47.450;8.654;2023-06-10T11:41:14;95134.59;;;31.31;30.94
44297;BME280;51842;47.450;8.654;2023-06-10T11:43:44;95148.09;;;31.19;30.62
44297;BME280;51842;47.450;8.654;2023-06-10T11:46:14;95132.97;;;30.96;30.40
44297;BME280;51842;47.450;8.654;2023-06-10T11:48:57;95136.41;;;31.07;31.57
44297;BME280;51842;47.450;8.654;2023-06-10T11:51:32;95127.53;;;30.89;30.51
44297;BME280;51842;47.450;8.654;2023-06-10T11:53:58;95121.13;;;30.54;30.96
44297;BME280;51842;47.450;8.654;2023-06-10T11:56:27;95122.38;;;30.95;31.33
44297;BME280;51842;47.450;8.654;2023-06-10T11:59:03;95116.88;;;31.36;29.26
44297;BME280;51842;47.450;8.654;2023-06-10T12:01:32;95113.47;;;31.59;29.19
44297;BME280;51842;47.450;8.654;2023-06-10T12:04:00;95120.25;;;31.82;29.43
44297;BME280;51842;47.450;8.654;2023-06-10T12:06:26;95116.75;;;31.81;28.87
44297;BME280;51842;47.450;8.654;2023-06-10T12:08:53;95121.22;;;30.92;30.22
44297;BME280;51842;47.450;8.654;2023-06-10T12:11:20;95113.09;;;31.19;30.28
44297;BME280;51842;47.450;8.654;2023-06-10T12:13:50;95118.41;;;30.99;29.21
44297;BME280;51842;47.450;8.654;2023-06-10T12:16:16;95117.13;;;31.11;29.00
44297;BME280;51842;47.450;8.654;2023-06-10T12:18:46;95107.47;;;31.30;28.88
44297;BME280;51842;47.450;8.654;2023-06-10T12:26:43;95115.69;;;30.51;30.46
44297;BME280;51842;47.450;8.654;2023-06-10T12:29:24;95114.00;;;31.09;29.61
44297;BME280;51842;47.450;8.654;2023-06-10T12:31:57;95112.63;;;31.28;29.15
44297;BME280;51842;47.450;8.654;2023-06-10T12:34:39;95111.34;;;30.98;28.92
44297;BME280;51842;47.450;8.654;2023-06-10T12:37:11;95101.28;;;31.22;28.44
44297;BME280;51842;47.450;8.654;2023-06-10T12:39:41;95098.97;;;31.55;28.86
44297;BME280;51842;47.450;8.654;2023-06-10T12:42:09;95108.00;;;31.55;29.70
44297;BME280;51842;47.450;8.654;2023-06-10T12:44:41;95097.00;;;31.18;29.96
44297;BME280;51842;47.450;8.654;2023-06-10T12:47:11;95107.53;;;30.36;29.72
44297;BME280;51842;47.450;8.654;2023-06-10T12:49:40;95103.09;;;30.98;29.76
44297;BME280;51842;47.450;8.654;2023-06-10T12:52:06;95097.13;;;31.45;28.75
44297;BME280;51842;47.450;8.654;2023-06-10T12:54:33;95100.00;;;31.30;29.32
44297;BME280;51842;47.450;8.654;2023-06-10T12:57:00;95107.50;;;31.64;28.54
44297;BME280;51842;47.450;8.654;2023-06-10T12:59:27;95092.03;;;31.74;28.14
44297;BME280;51842;47.450;8.654;2023-06-10T13:01:54;95088.72;;;32.40;27.37
44297;BME280;51842;47.450;8.654;2023-06-10T13:04:21;95092.16;;;32.99;26.81
44297;BME280;51842;47.450;8.654;2023-06-10T13:06:48;95080.41;;;33.34;26.11
44297;BME280;51842;47.450;8.654;2023-06-10T13:09:15;95091.31;;;32.55;26.67
44297;BME280;51842;47.450;8.654;2023-06-10T13:11:42;95081.53;;;32.23;27.84
44297;BME280;51842;47.450;8.654;2023-06-10T13:14:09;95070.53;;;32.23;27.69
44297;BME280;51842;47.450;8.654;2023-06-10T13:16:35;95072.50;;;31.65;29.16
44297;BME280;51842;47.450;8.654;2023-06-10T13:19:04;95069.66;;;31.72;28.10
44297;BME280;51842;47.450;8.654;2023-06-10T13:21:32;95065.91;;;32.40;26.80
44297;BME280;51842;47.450;8.654;2023-06-10T13:23:58;95063.34;;;33.00;27.25
44297;BME280;51842;47.450;8.654;2023-06-10T13:26:24;95059.41;;;33.40;27.65
44297;BME280;51842;47.450;8.654;2023-06-10T13:28:49;95060.06;;;33.68;27.02
44297;BME280;51842;47.450;8.654;2023-06-10T13:31:15;95055.53;;;33.38;26.61